Time;durP1;ratioP1;P1;durP2;ratioP2;P2;SDS_P1;SDS_P2;PMS_P1;PMS_P2;Temp;Humidity;BMP_temperature;BMP_pressure;BME280_temperature;BME280_humidity;BME280_pressure;Samples;Min_cycle;Max_cycle;Signal;HPM_P1;HPM_P2
2022/11/03 00:02:02;;;;;;;5.67;3.10;;;13.50;91.90;;;;;;5020012;28;20199;-63
2022/11/03 00:04:28;;;;;;;4.00;3.47;;;13.50;91.80;;;;;;5035124;28;20186;-63
2022/11/03 00:06:54;;;;;;;5.03;3.50;;;13.50;91.40;;;;;;5024213;28;20183;-63
2022/11/03 00:09:21;;;;;;;8.80;3.63;;;13.40;91.30;;;;;;5032651;28;20233;-63
2022/11/03 00:11:52;;;;;;;4.47;3.27;;;13.40;91.50;;;;;;5027027;28;20237;-63
2022/11/03 00:14:18;;;;;;;4.57;3.03;;;13.50;91.60;;;;;;5043875;28;20191;-63
2022/11/03 00:16:44;;;;;;;4.97;3.47;;;13.50;91.80;;;;;;5024871;28;20230;-63
2022/11/03 00:19:12;;;;;;;6.73;3.43;;;13.50;91.80;;;;;;5024005;28;20187;-63
2022/11/03 00:21:38;;;;;;;6.03;3.00;;;13.50;91.80;;;;;;5035829;28;20256;-63
2022/11/03 00:24:04;;;;;;;5.77;3.27;;;13.60;91.90;;;;;;5011241;28;20231;-63
2022/11/03 00:26:32;;;;;;;6.70;3.60;;;13.60;91.90;;;;;;5034673;28;20197;-63
2022/11/03 00:29:00;;;;;;;5.13;3.57;;;13.60;91.90;;;;;;5033725;28;20206;-63
2022/11/03 00:31:26;;;;;;;5.57;3.47;;;13.60;91.90;;;;;;5034433;28;20191;-63
2022/11/03 00:33:53;;;;;;;4.03;3.53;;;13.60;91.90;;;;;;5032075;28;20183;-63
2022/11/03 00:36:28;;;;;;;5.03;3.73;;;13.60;91.90;;;;;;5028769;28;20183;-63
2022/11/03 00:38:54;;;;;;;5.40;3.50;;;13.70;92.00;;;;;;5034094;28;20186;-63
2022/11/03 00:41:21;;;;;;;4.70;3.87;;;13.70;92.00;;;;;;5030728;28;20192;-63
2022/11/03 00:43:48;;;;;;;4.73;3.53;;;13.70;92.00;;;;;;5032180;28;20187;-63
2022/11/03 00:46:13;;;;;;;7.03;4.17;;;13.70;91.90;;;;;;5036478;28;20188;-63
2022/11/03 00:48:40;;;;;;;4.60;3.83;;;13.70;91.90;;;;;;5036462;28;20229;-63
2022/11/03 00:51:14;;;;;;;5.93;4.10;;;13.70;91.80;;;;;;5051013;28;20179;-63
2022/11/03 00:53:44;;;;;;;5.83;4.50;;;13.70;91.80;;;;;;5032734;28;20217;-63
2022/11/03 00:56:15;;;;;;;8.47;3.40;;;13.70;91.70;;;;;;5034631;28;20235;-63
2022/11/03 00:58:42;;;;;;;7.80;3.80;;;13.70;91.80;;;;;;5031493;28;20199;-63
2022/11/03 01:01:11;;;;;;;5.73;3.53;;;13.70;91.80;;;;;;5028254;28;20195;-63
2022/11/03 01:03:38;;;;;;;5.40;3.40;;;13.80;91.80;;;;;;5034588;28;20193;-63
2022/11/03 01:08:53;;;;;;;4.60;3.60;;;13.70;91.80;;;;;;5034381;28;20224;-63
2022/11/03 01:14:08;;;;;;;10.20;5.03;;;13.80;91.90;;;;;;5031312;28;20268;-63
2022/11/03 01:16:34;;;;;;;5.20;4.07;;;13.80;91.90;;;;;;5027230;28;20241;-63
2022/11/03 01:19:00;;;;;;;4.47;4.07;;;13.80;91.80;;;;;;5022021;28;20191;-63
2022/11/03 01:21:25;;;;;;;5.37;3.63;;;13.80;91.80;;;;;;5031298;28;20195;-63
2022/11/03 01:23:51;;;;;;;5.93;3.90;;;13.80;91.90;;;;;;5017518;28;20241;-63
2022/11/03 01:26:17;;;;;;;7.17;3.60;;;13.80;91.90;;;;;;5015111;28;20199;-63
2022/11/03 01:28:45;;;;;;;4.80;4.00;;;13.80;91.90;;;;;;5030433;28;20218;-63
2022/11/03 01:31:13;;;;;;;4.17;3.57;;;13.80;92.00;;;;;;5018317;28;20183;-63
2022/11/03 01:33:39;;;;;;;5.40;3.80;;;13.80;91.90;;;;;;5047104;28;20184;-63
2022/11/03 01:36:05;;;;;;;5.40;3.80;;;13.80;91.90;;;;;;5016006;28;20647;-63
2022/11/03 01:38:35;;;;;;;4.97;4.03;;;13.70;91.80;;;;;;5016875;28;20191;-63
2022/11/03 01:41:02;;;;;;;4.37;3.93;;;13.70;91.80;;;;;;5032580;28;20195;-63
2022/11/03 01:43:30;;;;;;;9.73;4.57;;;13.60;91.30;;;;;;5007728;28;20187;-63
2022/11/03 01:46:26;;;;;;;6.80;4.23;;;13.70;91.70;;;;;;5030473;28;20194;-63
2022/11/03 01:49:13;;;;;;;7.23;4.00;;;13.70;91.60;;;;;;5033671;28;20222;-63
2022/11/03 01:51:42;;;;;;;6.30;4.03;;;13.70;91.80;;;;;;5046010;28;20183;-63
2022/11/03 01:54:11;;;;;;;6.27;4.73;;;13.60;91.60;;;;;;5034937;28;20274;-63
2022/11/03 01:56:41;;;;;;;6.13;4.93;;;13.70;91.70;;;;;;5012478;28;20240;-63
2022/11/03 01:59:07;;;;;;;6.57;4.90;;;13.70;91.80;;;;;;5064972;28;20385;-63
2022/11/03 02:01:33;;;;;;;8.80;5.00;;;13.70;91.80;;;;;;5032615;28;20187;-63
2022/11/03 02:04:06;;;;;;;8.13;4.83;;;13.80;91.80;;;;;;5020596;28;20244;-63
2022/11/03 02:06:32;;;;;;;10.20;4.80;;;13.80;91.80;;;;;;5032782;28;20746;-63
2022/11/03 02:09:02;;;;;;;8.90;5.70;;;13.80;91.90;;;;;;5039748;28;20302;-63
2022/11/03 02:14:14;;;;;;;6.90;4.73;;;13.70;91.50;;;;;;5030286;28;20214;-63
2022/11/03 02:16:44;;;;;;;8.97;5.40;;;13.70;91.60;;;;;;5019146;28;20208;-63
2022/11/03 02:19:29;;;;;;;8.70;5.40;;;13.70;91.50;;;;;;5032328;28;20183;-63
2022/11/03 02:22:06;;;;;;;8.93;5.63;;;13.70;91.60;;;;;;5014673;28;20188;-63
2022/11/03 02:24:43;;;;;;;7.93;5.00;;;13.70;91.60;;;;;;5032421;28;20183;-63
2022/11/03 02:27:09;;;;;;;8.90;5.67;;;13.70;91.60;;;;;;5065569;28;20208;-63
2022/11/03 02:29:35;;;;;;;7.87;5.20;;;13.80;91.70;;;;;;5033773;28;20190;-63
2022/11/03 02:32:12;;;;;;;10.63;5.47;;;13.70;91.60;;;;;;5021257;28;20191;-63
2022/11/03 02:34:46;;;;;;;8.70;6.13;;;13.80;91.60;;;;;;5032744;28;20190;-63
2022/11/03 02:37:20;;;;;;;6.57;5.67;;;13.80;91.60;;;;;;5035443;28;20222;-63
2022/11/03 02:39:57;;;;;;;8.17;6.33;;;13.80;91.60;;;;;;5033897;28;20241;-63
2022/11/03 02:42:24;;;;;;;8.20;5.87;;;13.80;91.50;;;;;;5032217;28;20183;-63
2022/11/03 02:44:51;;;;;;;7.27;5.23;;;13.80;91.50;;;;;;5034998;28;20190;-63
2022/11/03 02:47:19;;;;;;;9.63;6.80;;;13.80;91.50;;;;;;5032031;28;20200;-63
2022/11/03 02:49:49;;;;;;;9.47;6.87;;;13.70;91.50;;;;;;5033469;28;20262;-63
2022/11/03 02:52:41;;;;;;;11.53;6.57;;;13.80;91.50;;;;;;5037148;28;20179;-63
2022/11/03 02:55:29;;;;;;;13.37;6.60;;;13.70;91.60;;;;;;5032424;28;20267;-63
2022/11/03 02:58:06;;;;;;;9.23;6.60;;;13.70;91.50;;;;;;5036362;28;20203;-63
2022/11/03 03:00:54;;;;;;;10.50;7.20;;;13.70;91.40;;;;;;5068903;28;20230;-63
2022/11/03 03:03:42;;;;;;;10.30;8.50;;;13.70;91.50;;;;;;5036524;28;20278;-63
2022/11/03 03:06:13;;;;;;;12.93;8.60;;;13.60;91.20;;;;;;5037146;28;20184;-63
2022/11/03 03:08:44;;;;;;;13.93;9.73;;;13.60;91.40;;;;;;5046876;28;20212;-63
2022/11/03 03:11:12;;;;;;;12.47;8.90;;;13.60;91.30;;;;;;5043208;28;20203;-63
2022/11/03 03:13:39;;;;;;;12.07;8.63;;;13.60;91.00;;;;;;5016200;28;20180;-63
2022/11/03 03:16:11;;;;;;;10.50;9.03;;;13.50;90.80;;;;;;5008538;28;20199;-63
2022/11/03 03:18:50;;;;;;;12.57;7.83;;;13.50;90.90;;;;;;5034034;28;20218;-63
2022/11/03 03:21:38;;;;;;;11.63;8.87;;;13.30;89.40;;;;;;5034698;28;20183;-63
2022/11/03 03:24:11;;;;;;;13.00;8.27;;;13.30;90.40;;;;;;5034427;28;20195;-63
2022/11/03 03:26:43;;;;;;;10.83;8.27;;;13.30;89.80;;;;;;5039975;28;20183;-63
2022/11/03 03:29:16;;;;;;;15.40;8.77;;;13.30;90.30;;;;;;5030385;28;20719;-63
2022/11/03 03:31:47;;;;;;;14.67;8.70;;;13.20;90.70;;;;;;5024989;28;20254;-63
2022/11/03 03:34:15;;;;;;;13.33;8.90;;;13.30;90.90;;;;;;5035325;28;20196;-63
2022/11/03 03:36:43;;;;;;;15.63;10.60;;;13.20;90.70;;;;;;5027547;28;20270;-63
2022/11/03 03:39:12;;;;;;;15.00;9.53;;;13.10;90.20;;;;;;5041233;28;20191;-63
2022/11/03 03:41:39;;;;;;;12.40;9.23;;;13.20;90.70;;;;;;5031660;28;20191;-63
2022/11/03 03:44:08;;;;;;;10.43;8.90;;;13.10;90.30;;;;;;5018612;28;20199;-63
2022/11/03 03:46:44;;;;;;;11.40;9.33;;;13.10;90.70;;;;;;5035316;28;20218;-63
2022/11/03 03:49:10;;;;;;;11.90;9.40;;;13.10;90.40;;;;;;5039512;28;20205;-63
2022/11/03 03:51:37;;;;;;;12.60;9.70;;;13.10;90.90;;;;;;5013527;28;20179;-63
2022/11/03 03:54:03;;;;;;;13.57;9.23;;;13.20;91.00;;;;;;5037169;28;20194;-63
2022/11/03 03:57:00;;;;;;;14.70;9.90;;;13.20;91.20;;;;;;5043933;28;20223;-63
2022/11/03 03:59:26;;;;;;;15.30;9.57;;;13.30;91.20;;;;;;5057379;28;20180;-63
2022/11/03 04:01:53;;;;;;;13.90;9.17;;;13.20;91.00;;;;;;5056445;28;20203;-63
2022/11/03 04:04:19;;;;;;;15.00;9.27;;;13.20;90.40;;;;;;5068882;28;20195;-63
2022/11/03 04:06:44;;;;;;;17.07;10.33;;;13.20;90.80;;;;;;5028165;28;20221;-63
2022/11/03 04:09:10;;;;;;;10.77;9.10;;;13.20;91.00;;;;;;5026317;28;20223;-63
2022/11/03 04:22:36;;;;;;;14.43;9.40;;;13.30;91.00;;;;;;5035077;28;20195;-64
2022/11/03 04:25:02;;;;;;;11.73;8.37;;;13.30;91.00;;;;;;5020229;28;20209;-64
2022/11/03 04:27:33;;;;;;;10.90;9.17;;;13.30;90.90;;;;;;5041258;28;20211;-64
2022/11/03 04:30:01;;;;;;;12.20;9.20;;;13.30;91.00;;;;;;5026356;28;20191;-64
2022/11/03 04:32:27;;;;;;;14.63;9.57;;;13.20;91.00;;;;;;5039726;28;20187;-64
2022/11/03 04:34:53;;;;;;;14.77;7.97;;;13.20;91.10;;;;;;5042549;28;20199;-63
2022/11/03 04:37:19;;;;;;;12.70;9.23;;;13.20;91.00;;;;;;5035135;28;20179;-63
2022/11/03 04:39:45;;;;;;;13.93;8.50;;;13.20;91.10;;;;;;5030638;28;20280;-63
2022/11/03 04:42:19;;;;;;;10.40;8.17;;;13.20;91.20;;;;;;5026230;28;20287;-63
2022/11/03 04:44:47;;;;;;;12.97;8.23;;;13.20;91.00;;;;;;5038555;28;20178;-63
2022/11/03 04:47:15;;;;;;;11.03;7.93;;;13.20;91.10;;;;;;5017997;28;20242;-63
2022/11/03 04:49:41;;;;;;;10.87;8.50;;;13.10;91.10;;;;;;5052115;28;20193;-63
2022/11/03 04:52:18;;;;;;;9.43;7.83;;;13.10;90.90;;;;;;5032738;28;20207;-63
2022/11/03 04:54:46;;;;;;;13.60;8.97;;;13.10;91.00;;;;;;5028863;28;20187;-63
2022/11/03 04:57:14;;;;;;;9.40;8.03;;;13.10;91.00;;;;;;5041604;28;20245;-63
2022/11/03 04:59:42;;;;;;;12.00;9.13;;;13.10;91.10;;;;;;5040597;28;20203;-64
2022/11/03 05:02:19;;;;;;;10.47;7.50;;;13.10;91.10;;;;;;5017327;28;20237;-63
2022/11/03 05:04:45;;;;;;;10.57;7.97;;;13.00;91.20;;;;;;5036915;28;20190;-64
2022/11/03 05:07:35;;;;;;;14.23;8.90;;;13.00;91.20;;;;;;5019524;28;20222;-63
2022/11/03 05:10:02;;;;;;;10.30;7.40;;;13.00;91.30;;;;;;5036314;28;20278;-64
2022/11/03 05:12:29;;;;;;;11.67;7.67;;;13.00;91.30;;;;;;5038371;28;20215;-64
2022/11/03 05:14:55;;;;;;;12.90;8.20;;;13.00;91.30;;;;;;5018746;28;20258;-64
2022/11/03 05:17:26;;;;;;;10.73;8.33;;;13.00;91.30;;;;;;5055426;28;20198;-63
2022/11/03 05:19:59;;;;;;;11.23;7.80;;;13.00;91.30;;;;;;5034917;28;20199;-63
2022/11/03 05:22:29;;;;;;;11.03;7.47;;;13.00;91.30;;;;;;5032961;28;20222;-63
2022/11/03 05:25:01;;;;;;;10.67;7.33;;;13.00;91.40;;;;;;5034426;28;20191;-64
2022/11/03 05:27:27;;;;;;;13.23;7.17;;;13.00;91.20;;;;;;5034937;28;20212;-64
2022/11/03 05:29:55;;;;;;;7.87;6.77;;;13.00;91.20;;;;;;5009424;28;20187;-63
2022/11/03 05:32:25;;;;;;;9.47;6.87;;;13.00;91.10;;;;;;5066063;28;20270;-64
2022/11/03 05:34:52;;;;;;;7.97;6.67;;;13.00;91.10;;;;;;5041081;28;20183;-63
2022/11/03 05:37:28;;;;;;;14.27;7.37;;;13.00;91.00;;;;;;5047040;28;20190;-63
2022/11/03 05:40:03;;;;;;;8.70;6.47;;;13.00;91.00;;;;;;5013817;28;20234;-63
2022/11/03 05:42:41;;;;;;;10.30;6.70;;;12.90;90.90;;;;;;5035972;28;20193;-63
2022/11/03 05:45:34;;;;;;;9.33;6.30;;;12.90;90.90;;;;;;5041555;28;20191;-63
2022/11/03 05:48:02;;;;;;;10.03;7.40;;;12.90;90.90;;;;;;5027528;28;20221;-63
2022/11/03 05:50:32;;;;;;;8.70;7.03;;;12.90;90.80;;;;;;5034411;28;20183;-63
2022/11/03 05:53:18;;;;;;;7.80;6.57;;;12.90;90.80;;;;;;5018035;28;20187;-63
2022/11/03 05:55:44;;;;;;;9.00;6.50;;;12.90;90.80;;;;;;5022352;28;20236;-63
2022/11/03 05:58:18;;;;;;;10.10;7.27;;;12.90;90.90;;;;;;5024334;28;20206;-63
2022/11/03 06:00:44;;;;;;;11.27;6.43;;;13.00;90.80;;;;;;5032113;28;20243;-63
2022/11/03 06:03:18;;;;;;;9.20;6.77;;;12.90;90.60;;;;;;5018131;28;20191;-63
2022/11/03 06:05:45;;;;;;;9.63;6.63;;;12.90;90.60;;;;;;5031664;28;20237;-63
2022/11/03 06:08:18;;;;;;;12.20;6.87;;;12.90;90.40;;;;;;5035981;28;20205;-65
2022/11/03 06:10:48;;;;;;;8.43;6.07;;;12.90;90.40;;;;;;5040975;28;20187;-64
2022/11/03 06:13:19;;;;;;;9.57;6.20;;;12.90;90.30;;;;;;5034311;28;20187;-63
2022/11/03 06:15:46;;;;;;;10.80;6.23;;;12.80;90.30;;;;;;5030889;28;20183;-64
2022/11/03 06:18:18;;;;;;;7.70;5.40;;;12.80;90.20;;;;;;5029964;28;20222;-64
2022/11/03 06:20:56;;;;;;;8.63;5.80;;;12.90;90.30;;;;;;5035917;28;20187;-64
2022/11/03 06:23:22;;;;;;;9.00;5.67;;;12.80;90.20;;;;;;5031402;28;20277;-63
2022/11/03 06:25:51;;;;;;;9.03;6.07;;;12.90;90.20;;;;;;5022306;28;20187;-63
2022/11/03 06:28:24;;;;;;;9.93;5.70;;;12.90;90.10;;;;;;5043306;28;20218;-63
2022/11/03 06:30:50;;;;;;;6.97;5.67;;;12.90;90.10;;;;;;5041606;28;20245;-63
2022/11/03 06:33:24;;;;;;;11.50;6.33;;;12.90;90.00;;;;;;5020286;28;20192;-64
2022/11/03 06:35:52;;;;;;;9.23;6.03;;;12.80;89.80;;;;;;5024466;28;20175;-64
2022/11/03 06:38:22;;;;;;;10.80;6.13;;;12.80;90.00;;;;;;5020690;28;20253;-64
2022/11/03 06:40:50;;;;;;;7.50;6.20;;;12.80;89.70;;;;;;5037565;28;20225;-64
2022/11/03 06:43:20;;;;;;;8.63;5.43;;;12.80;90.10;;;;;;5021927;28;20197;-64
2022/11/03 06:45:57;;;;;;;7.87;5.57;;;12.80;90.10;;;;;;5037391;28;20183;-64
2022/11/03 06:48:33;;;;;;;8.83;5.60;;;12.90;90.10;;;;;;5028999;28;20214;-64
2022/11/03 06:50:59;;;;;;;9.30;5.50;;;13.00;90.20;;;;;;5038663;28;20207;-64
2022/11/03 06:53:28;;;;;;;7.37;5.50;;;13.00;90.20;;;;;;5027706;28;20198;-64
2022/11/03 06:55:55;;;;;;;7.60;5.07;;;13.00;90.20;;;;;;5047148;28;20276;-64
2022/11/03 06:58:31;;;;;;;7.40;5.37;;;13.10;90.20;;;;;;5042315;28;20190;-64
2022/11/03 07:01:00;;;;;;;7.90;6.00;;;13.10;89.70;;;;;;5043078;28;20183;-64
2022/11/03 07:03:36;;;;;;;7.00;5.60;;;13.00;89.20;;;;;;5040918;28;20190;-64
2022/11/03 07:06:16;;;;;;;11.00;6.37;;;13.00;89.50;;;;;;5050643;28;20195;-64
2022/11/03 07:08:47;;;;;;;10.87;6.27;;;13.10;89.90;;;;;;5041288;28;20234;-64
2022/11/03 07:11:17;;;;;;;11.97;6.80;;;13.10;89.80;;;;;;5038327;28;20186;-64
2022/11/03 07:13:44;;;;;;;9.00;5.70;;;13.10;89.70;;;;;;5031935;28;20179;-64
2022/11/03 07:16:18;;;;;;;7.23;6.10;;;13.20;89.50;;;;;;5037694;28;20198;-64
2022/11/03 07:18:46;;;;;;;8.37;6.20;;;13.20;89.60;;;;;;5034459;28;20194;-63
2022/11/03 07:21:32;;;;;;;10.33;6.67;;;13.20;89.60;;;;;;5031595;28;20199;-62
2022/11/03 07:24:05;;;;;;;10.20;6.97;;;13.20;89.70;;;;;;5023043;28;20203;-62
2022/11/03 07:26:32;;;;;;;9.93;8.03;;;13.20;89.60;;;;;;5066558;28;20183;-62
2022/11/03 07:29:00;;;;;;;11.73;7.13;;;13.30;89.60;;;;;;5017603;28;20211;-61
2022/11/03 07:31:25;;;;;;;10.70;7.73;;;13.30;89.60;;;;;;5007258;28;20195;-61
2022/11/03 07:33:57;;;;;;;11.60;7.80;;;13.30;89.80;;;;;;5031877;28;20240;-61
2022/11/03 07:36:24;;;;;;;10.90;7.80;;;13.30;89.80;;;;;;5035113;28;20184;-61
2022/11/03 07:38:52;;;;;;;12.00;6.63;;;13.30;89.70;;;;;;5037711;28;20214;-61
2022/11/03 07:41:21;;;;;;;8.70;6.37;;;13.30;89.50;;;;;;5051428;28;20249;-61
2022/11/03 07:43:56;;;;;;;8.57;6.60;;;13.40;89.50;;;;;;5033294;28;20191;-63
2022/11/03 07:46:23;;;;;;;13.03;7.60;;;13.40;89.40;;;;;;5006263;28;20219;-63
2022/11/03 07:48:58;;;;;;;11.27;6.03;;;13.50;89.40;;;;;;5026840;28;20694;-63
2022/11/03 07:51:36;;;;;;;10.53;6.00;;;13.50;89.30;;;;;;5047045;28;20270;-63
2022/11/03 07:54:07;;;;;;;12.30;6.60;;;13.50;89.30;;;;;;5031589;28;20179;-63
2022/11/03 07:56:47;;;;;;;9.70;6.30;;;13.50;88.50;;;;;;5039574;28;20268;-63
2022/11/03 07:59:18;;;;;;;9.03;6.27;;;13.60;88.90;;;;;;5037001;28;20197;-64
2022/11/03 08:01:55;;;;;;;7.60;5.83;;;13.70;88.60;;;;;;5037929;28;20182;-63
2022/11/03 08:04:24;;;;;;;6.00;4.57;;;13.80;88.10;;;;;;5021223;28;20226;-63
2022/11/03 08:06:50;;;;;;;9.53;5.73;;;13.70;85.10;;;;;;5022744;28;20216;-63
2022/11/03 08:09:16;;;;;;;9.03;5.30;;;13.70;86.40;;;;;;5031156;28;20246;-63
2022/11/03 08:11:42;;;;;;;7.63;5.10;;;13.80;87.00;;;;;;5021659;28;20188;-63
2022/11/03 08:14:09;;;;;;;7.77;5.27;;;13.80;87.10;;;;;;5051099;28;20249;-63
2022/11/03 08:16:35;;;;;;;8.30;4.70;;;13.90;87.00;;;;;;5067718;28;20630;-63
2022/11/03 08:19:01;;;;;;;6.93;4.50;;;14.00;86.30;;;;;;5043478;28;20188;-63
2022/11/03 08:21:27;;;;;;;6.50;4.20;;;14.00;86.10;;;;;;5018603;28;20279;-60
2022/11/03 08:23:52;;;;;;;6.07;3.80;;;14.00;85.50;;;;;;5020278;28;20346;-60
2022/11/03 08:26:18;;;;;;;5.87;3.50;;;14.00;85.80;;;;;;5034537;28;20199;-60
2022/11/03 08:28:44;;;;;;;7.87;3.60;;;14.00;85.70;;;;;;5058033;28;20233;-60
2022/11/03 08:31:09;;;;;;;10.77;4.17;;;14.00;83.80;;;;;;5019078;28;20203;-63
2022/11/03 08:33:35;;;;;;;6.47;3.80;;;13.90;82.90;;;;;;5018550;28;20187;-63
2022/11/03 08:36:02;;;;;;;5.93;3.57;;;13.80;79.90;;;;;;5048847;28;20307;-63
2022/11/03 08:38:29;;;;;;;6.50;3.70;;;13.80;80.10;;;;;;5037763;28;20249;-63
2022/11/03 08:40:55;;;;;;;7.50;3.67;;;13.80;82.00;;;;;;5021482;28;20191;-63
2022/11/03 08:43:21;;;;;;;7.23;3.43;;;13.90;82.30;;;;;;5017121;28;20199;-63
2022/11/03 08:45:52;;;;;;;5.23;3.97;;;14.00;83.20;;;;;;5020837;28;20329;-63
2022/11/03 08:48:21;;;;;;;5.40;3.53;;;14.10;83.90;;;;;;5023290;28;20263;-63
2022/11/03 08:50:49;;;;;;;4.70;3.00;;;14.00;79.40;;;;;;5036190;28;20263;-63
2022/11/03 08:53:15;;;;;;;6.20;4.40;;;14.00;79.40;;;;;;5012409;28;20196;-63
2022/11/03 08:55:41;;;;;;;6.67;3.33;;;14.00;79.50;;;;;;5016036;28;20239;-63
2022/11/03 08:58:07;;;;;;;8.97;3.80;;;14.10;81.40;;;;;;5049442;28;20247;-62
2022/11/03 09:00:34;;;;;;;3.70;3.00;;;14.30;82.70;;;;;;5009878;28;20195;-62
2022/11/03 09:03:00;;;;;;;7.13;3.37;;;14.20;80.20;;;;;;5017642;28;20250;-62
2022/11/03 09:05:25;;;;;;;6.63;3.30;;;14.30;81.20;;;;;;5015178;28;20217;-63
2022/11/03 09:07:51;;;;;;;7.17;2.97;;;14.30;81.00;;;;;;5034591;28;20488;-63
2022/11/03 09:10:17;;;;;;;4.10;2.70;;;14.40;81.80;;;;;;5016763;28;20680;-62
2022/11/03 09:12:42;;;;;;;7.50;3.00;;;14.40;80.50;;;;;;5005058;28;20194;-62
2022/11/03 09:15:09;;;;;;;4.23;2.60;;;14.30;79.40;;;;;;5022899;28;20247;-62
2022/11/03 09:17:34;;;;;;;5.77;3.00;;;14.30;79.10;;;;;;5027134;28;20200;-62
2022/11/03 09:20:00;;;;;;;4.70;2.90;;;14.30;78.00;;;;;;5034721;28;20187;-62
2022/11/03 09:22:26;;;;;;;5.23;2.93;;;14.30;79.80;;;;;;5039532;28;20198;-63
2022/11/03 09:24:51;;;;;;;6.27;3.07;;;14.30;78.10;;;;;;5030753;28;20258;-62
2022/11/03 09:27:17;;;;;;;4.97;2.83;;;14.30;79.10;;;;;;5016843;28;20227;-62
2022/11/03 09:29:43;;;;;;;7.80;3.30;;;14.30;80.00;;;;;;4997734;28;20188;-62
2022/11/03 09:32:09;;;;;;;6.10;3.40;;;14.50;80.30;;;;;;5016393;28;20192;-62
2022/11/03 09:34:34;;;;;;;8.70;3.50;;;14.60;80.70;;;;;;5005739;28;20189;-62
2022/11/03 09:37:00;;;;;;;6.23;2.70;;;14.70;80.70;;;;;;5032898;28;20196;-62
2022/11/03 09:39:25;;;;;;;6.57;3.07;;;14.80;80.40;;;;;;5015483;28;20200;-62
2022/11/03 09:41:52;;;;;;;6.87;3.50;;;14.80;80.30;;;;;;5057049;28;20195;-62
2022/11/03 09:44:18;;;;;;;9.87;3.73;;;14.80;79.40;;;;;;5044282;28;20194;-62
2022/11/03 09:46:44;;;;;;;4.17;3.20;;;14.80;78.30;;;;;;5016580;28;20202;-62
2022/11/03 09:49:18;;;;;;;4.43;2.50;;;14.70;76.10;;;;;;5028253;28;20210;-62
2022/11/03 09:51:44;;;;;;;6.20;3.00;;;14.70;78.00;;;;;;5033637;28;20345;-62
2022/11/03 09:54:14;;;;;;;6.13;3.10;;;14.50;73.00;;;;;;5033265;28;20555;-62
2022/11/03 09:56:41;;;;;;;7.87;3.43;;;14.30;74.70;;;;;;5032788;28;20236;-63
2022/11/03 09:59:19;;;;;;;5.63;2.77;;;14.30;74.80;;;;;;5035998;28;20221;-63
2022/11/03 10:01:48;;;;;;;4.67;3.17;;;14.40;76.30;;;;;;5037623;28;20196;-63
2022/11/03 10:04:25;;;;;;;8.23;3.10;;;14.50;76.80;;;;;;5017675;28;20199;-63
2022/11/03 10:06:51;;;;;;;7.53;3.10;;;14.50;75.30;;;;;;5023066;28;20187;-63
2022/11/03 10:09:19;;;;;;;4.53;3.30;;;14.50;75.30;;;;;;5045217;28;20212;-63
2022/11/03 10:11:46;;;;;;;9.60;3.17;;;14.50;76.00;;;;;;5044676;28;20187;-63
2022/11/03 10:14:14;;;;;;;5.70;3.37;;;14.50;75.80;;;;;;5029579;28;20202;-63
2022/11/03 10:16:41;;;;;;;4.60;2.30;;;14.60;77.40;;;;;;5031909;28;20191;-62
2022/11/03 10:19:15;;;;;;;11.67;3.70;;;14.70;77.80;;;;;;5033012;28;20195;-62
2022/11/03 10:21:42;;;;;;;4.93;2.93;;;14.80;78.10;;;;;;5032668;28;20204;-62
2022/11/03 10:24:12;;;;;;;6.23;3.60;;;15.00;78.30;;;;;;5025949;28;20201;-62
2022/11/03 10:26:55;;;;;;;4.33;3.27;;;15.00;76.50;;;;;;5033824;28;20205;-62
2022/11/03 10:29:26;;;;;;;4.97;3.20;;;15.10;76.20;;;;;;5027588;28;20207;-62
2022/11/03 10:31:54;;;;;;;5.47;3.17;;;15.10;74.30;;;;;;5037532;28;20195;-62
2022/11/03 10:34:25;;;;;;;6.30;3.20;;;15.00;75.00;;;;;;5031569;28;20190;-62
2022/11/03 10:37:24;;;;;;;5.10;3.27;;;15.10;76.60;;;;;;5023164;28;20274;-63
2022/11/03 10:39:52;;;;;;;4.17;2.60;;;15.20;77.00;;;;;;5056904;28;20190;-62
2022/11/03 10:42:23;;;;;;;8.60;3.40;;;15.30;75.80;;;;;;5033159;28;20193;-62
2022/11/03 10:45:07;;;;;;;8.30;4.23;;;15.40;75.30;;;;;;5037223;28;20179;-62
2022/11/03 10:47:34;;;;;;;6.27;3.10;;;15.30;72.10;;;;;;5029369;28;20306;-63
2022/11/03 10:50:19;;;;;;;4.40;3.00;;;15.30;75.40;;;;;;5033850;28;20194;-63
2022/11/03 10:52:45;;;;;;;8.03;2.97;;;15.30;74.40;;;;;;5019571;28;20207;-61
2022/11/03 10:55:11;;;;;;;4.83;3.00;;;15.40;74.00;;;;;;5002123;28;20190;-60
2022/11/03 10:57:37;;;;;;;9.20;4.33;;;15.50;75.50;;;;;;5029472;28;20230;-61
2022/11/03 11:00:04;;;;;;;7.10;3.33;;;15.50;73.50;;;;;;5035421;28;20229;-61
2022/11/03 11:02:31;;;;;;;7.53;3.33;;;15.50;72.50;;;;;;5017189;28;20196;-61
2022/11/03 11:04:59;;;;;;;5.50;3.83;;;15.50;74.10;;;;;;5009696;28;20286;-61
2022/11/03 11:07:36;;;;;;;5.23;2.90;;;15.50;74.80;;;;;;5037148;28;20191;-61
2022/11/03 11:10:17;;;;;;;11.10;3.60;;;15.60;74.00;;;;;;5035360;28;20195;-61
2022/11/03 11:13:17;;;;;;;6.90;3.20;;;15.60;73.00;;;;;;5019792;28;20191;-62
2022/11/03 11:15:48;;;;;;;5.63;3.53;;;15.50;72.20;;;;;;5031758;28;20190;-62
2022/11/03 11:18:26;;;;;;;5.13;3.17;;;15.30;72.90;;;;;;5030796;28;20209;-62
2022/11/03 11:20:52;;;;;;;5.20;3.17;;;15.30;74.20;;;;;;5033064;28;20193;-61
2022/11/03 11:23:30;;;;;;;5.00;2.90;;;15.40;73.80;;;;;;5033608;28;20186;-62
2022/11/03 11:26:07;;;;;;;5.87;3.10;;;15.40;72.50;;;;;;5035031;28;20205;-62
2022/11/03 11:28:37;;;;;;;5.43;3.00;;;15.50;72.20;;;;;;5034628;28;20210;-61
2022/11/03 11:31:21;;;;;;;8.00;3.10;;;15.70;72.60;;;;;;5049484;28;20187;-62
2022/11/03 11:33:47;;;;;;;5.60;3.73;;;15.90;73.20;;;;;;5066230;28;20183;-61
2022/11/03 11:36:25;;;;;;;4.77;3.60;;;15.80;70.20;;;;;;5033186;28;20233;-62
2022/11/03 11:38:51;;;;;;;6.23;3.07;;;15.90;71.40;;;;;;5046615;28;20242;-61
2022/11/03 11:41:19;;;;;;;8.40;3.30;;;16.00;71.90;;;;;;5032841;28;20192;-62
2022/11/03 11:43:45;;;;;;;4.10;3.33;;;16.00;72.70;;;;;;5030809;28;20263;-62
2022/11/03 11:46:23;;;;;;;8.50;3.40;;;16.00;73.70;;;;;;5038267;28;20194;-62
2022/11/03 11:48:56;;;;;;;5.60;3.63;;;16.00;70.70;;;;;;5036147;28;20214;-62
2022/11/03 11:51:23;;;;;;;7.13;3.60;;;15.90;71.10;;;;;;5022120;28;20274;-61
2022/11/03 11:53:50;;;;;;;4.97;3.10;;;15.80;72.80;;;;;;5033355;28;20190;-61
2022/11/03 11:56:17;;;;;;;6.30;3.27;;;15.90;73.10;;;;;;5013870;28;20239;-61
2022/11/03 11:58:49;;;;;;;8.43;3.50;;;16.00;73.30;;;;;;5062858;28;20274;-59
2022/11/03 12:01:31;;;;;;;5.70;3.20;;;16.10;73.60;;;;;;5032168;28;20194;-61
2022/11/03 12:04:24;;;;;;;5.23;2.87;;;16.20;74.10;;;;;;5032487;28;20281;-61
2022/11/03 12:06:50;;;;;;;5.80;3.13;;;16.30;73.00;;;;;;5042588;28;20198;-61
2022/11/03 12:09:21;;;;;;;4.13;3.40;;;16.30;73.40;;;;;;5018630;28;20215;-61
2022/11/03 12:11:52;;;;;;;5.50;3.23;;;16.00;70.70;;;;;;5067401;28;20183;-61
2022/11/03 12:14:30;;;;;;;4.80;3.30;;;16.00;70.90;;;;;;5032255;28;20222;-61
2022/11/03 12:17:16;;;;;;;5.30;3.90;;;16.20;71.80;;;;;;5063564;28;20206;-61
2022/11/03 12:19:52;;;;;;;5.83;3.30;;;16.20;72.10;;;;;;5032052;28;20234;-59
2022/11/03 12:22:23;;;;;;;5.13;3.93;;;16.20;72.60;;;;;;5038785;28;20191;-62
2022/11/03 12:24:49;;;;;;;5.67;3.53;;;16.20;71.10;;;;;;5071237;28;20198;-62
2022/11/03 12:27:39;;;;;;;11.47;4.10;;;16.10;71.40;;;;;;5038913;28;20191;-62
2022/11/03 12:30:14;;;;;;;4.63;3.23;;;16.00;69.00;;;;;;5076417;28;20183;-62
2022/11/03 12:32:39;;;;;;;5.57;3.10;;;15.80;70.10;;;;;;5037850;28;20183;-62
2022/11/03 12:35:08;;;;;;;5.57;3.10;;;15.80;71.50;;;;;;5019815;28;20280;-62
2022/11/03 12:37:33;;;;;;;6.20;3.10;;;15.90;72.40;;;;;;5071792;28;20194;-62
2022/11/03 12:39:59;;;;;;;5.13;3.00;;;16.00;73.20;;;;;;5029940;28;20190;-62
2022/11/03 12:42:25;;;;;;;5.23;3.30;;;16.10;73.30;;;;;;5015924;28;20195;-62
2022/11/03 12:44:51;;;;;;;6.00;3.03;;;16.10;73.20;;;;;;5013004;28;20207;-62
2022/11/03 12:47:17;;;;;;;6.60;2.97;;;16.20;73.30;;;;;;5037772;28;20191;-62
2022/11/03 12:49:42;;;;;;;6.10;3.10;;;16.20;73.80;;;;;;5032409;28;20187;-62
2022/11/03 12:52:09;;;;;;;6.80;3.53;;;16.30;73.60;;;;;;5016637;28;20191;-62
2022/11/03 12:54:35;;;;;;;8.17;3.63;;;16.40;72.70;;;;;;5015972;28;20211;-62
2022/11/03 12:57:00;;;;;;;4.33;3.43;;;16.50;73.50;;;;;;5017402;28;20275;-62
2022/11/03 12:59:26;;;;;;;4.60;3.20;;;16.70;72.40;;;;;;5019089;28;20457;-61
2022/11/03 13:01:52;;;;;;;4.47;2.90;;;16.80;72.20;;;;;;5023448;28;20219;-61
2022/11/03 13:04:17;;;;;;;5.10;2.97;;;16.80;72.40;;;;;;5035865;28;20195;-61
2022/11/03 13:06:43;;;;;;;4.67;3.10;;;16.90;72.50;;;;;;5032755;28;20199;-61
2022/11/03 13:09:09;;;;;;;5.20;3.27;;;16.80;71.90;;;;;;5018685;28;20214;-61
2022/11/03 13:14:18;;;;;;;3.97;2.80;;;16.80;72.60;;;;;;5041457;28;20189;-61
2022/11/03 13:16:44;;;;;;;7.30;2.83;;;16.80;72.80;;;;;;5008379;28;20196;-61
2022/11/03 13:19:10;;;;;;;3.77;3.00;;;16.80;73.20;;;;;;5027530;28;20243;-61
2022/11/03 13:21:36;;;;;;;4.33;2.87;;;16.80;71.90;;;;;;5044156;28;20233;-61